Time;durP1;ratioP1;P1;durP2;ratioP2;P2;SDS_P1;SDS_P2;PMS_P1;PMS_P2;Temp;Humidity;BMP_temperature;BMP_pressure;BME280_temperature;BME280_humidity;BME280_pressure;Samples;Min_cycle;Max_cycle;Signal;HPM_P1;HPM_P2
2021/07/22 00:00:27;;;;;;;;;;;;;;;;;;1041001;28;20353;-79
2021/07/22 00:00:57;;;;;;;;;;;;;;;;;;1040454;28;19917;-79
2021/07/22 00:01:28;;;;;;;;;;;;;;;;;;1040395;28;19913;-80
2021/07/22 00:01:58;;;;;;;;;;;;;;;;;;1041183;28;20003;-80
2021/07/22 00:02:28;;;;;;;;;;;;;;;;;;1041072;28;20433;-81
2021/07/22 00:02:58;;;;;;;;;;;;;;;;;;1041721;28;19910;-80
2021/07/22 00:03:29;;;;;;;;;;;;;;;;;;1037228;28;20011;-81
2021/07/22 00:04:00;;;;;;;;;;;;;;;;;;1029114;28;19949;-80
2021/07/22 00:04:30;;;;;;;;;;;;;;;;;;1029028;28;19910;-80
2021/07/22 00:05:00;;;;;;;;;;;;;;;;;;1033508;28;19949;-79
2021/07/22 00:05:31;;;;;;;;;;;;;;;;;;1033104;28;20286;-79
2021/07/22 00:06:01;;;;;;;;;;;;;;;;;;1037194;28;19956;-80
2021/07/22 00:06:31;;;;;;;;;;;;;;;;;;1036979;28;19910;-80
2021/07/22 00:07:01;;;;;;;;;;;;;;;;;;1033191;28;19906;-80
2021/07/22 00:07:32;;;;;;;;;;;;;;;;;;1040984;28;19909;-80
2021/07/22 00:08:02;;;;;;;;;;;;;;;;;;1045594;28;20429;-79
2021/07/22 00:08:32;;;;;;;;;;;;;;;;;;1045141;28;19940;-80
2021/07/22 00:09:02;;;;;;;;;;;;;;;;;;1041068;28;19909;-80
2021/07/22 00:09:33;;;;;;;;;;;;;;;;;;1036749;28;20085;-79
2021/07/22 00:10:03;;;;;;;;;;;;;;;;;;1036742;28;19976;-79
2021/07/22 00:10:33;;;;;;;;;;;;;;;;;;1040514;28;19905;-79
2021/07/22 00:11:03;;;;;;;;;;;;;;;;;;1040705;28;19951;-79
2021/07/22 00:11:34;;;;;;;;;;;;;;;;;;1036388;28;19916;-79
2021/07/22 00:12:04;;;;;;;;;;;;;;;;;;1036501;28;19910;-79
2021/07/22 00:12:34;;;;;;;;;;;;;;;;;;1032417;28;19917;-79
2021/07/22 00:13:04;;;;;;;;;;;;;;;;;;1032486;28;20402;-79
2021/07/22 00:13:35;;;;;;;;;;;;;;;;;;1036610;28;19913;-79
2021/07/22 00:14:05;;;;;;;;;;;;;;;;;;1032575;28;19917;-80
2021/07/22 00:14:35;;;;;;;;;;;;;;;;;;1036469;28;19905;-80
2021/07/22 00:15:05;;;;;;;;;;;;;;;;;;1032479;28;20275;-79
2021/07/22 00:15:36;;;;;;;;;;;;;;;;;;1032800;28;20387;-79
2021/07/22 00:16:07;;;;;;;;;;;;;;;;;;1032569;28;19910;-79
2021/07/22 00:16:37;;;;;;;;;;;;;;;;;;1028630;28;19910;-78
2021/07/22 00:17:07;;;;;;;;;;;;;;;;;;1040805;28;19905;-80
2021/07/22 00:17:38;;;;;;;;;;;;;;;;;;1036738;28;19924;-80
2021/07/22 00:18:08;;;;;;;;;;;;;;;;;;1040815;28;19964;-80
2021/07/22 00:18:38;;;;;;;;;;;;;;;;;;1036640;28;19909;-79
2021/07/22 00:19:08;;;;;;;;;;;;;;;;;;1032530;28;19941;-80
2021/07/22 00:19:39;;;;;;;;;;;;;;;;;;1036555;28;19909;-80
2021/07/22 00:20:09;;;;;;;;;;;;;;;;;;1032549;28;19990;-78
2021/07/22 00:20:39;;;;;;;;;;;;;;;;;;1032698;28;19960;-78
2021/07/22 00:21:10;;;;;;;;;;;;;;;;;;1036784;28;19909;-79
2021/07/22 00:21:40;;;;;;;;;;;;;;;;;;1036979;28;19906;-78
2021/07/22 00:22:10;;;;;;;;;;;;;;;;;;1040952;28;19909;-78
2021/07/22 00:22:40;;;;;;;;;;;;;;;;;;1040840;28;20363;-79
2021/07/22 00:23:11;;;;;;;;;;;;;;;;;;1028621;28;19974;-79
2021/07/22 00:23:41;;;;;;;;;;;;;;;;;;1028743;28;19910;-79
2021/07/22 00:24:11;;;;;;;;;;;;;;;;;;1032769;28;19945;-79
2021/07/22 00:24:42;;;;;;;;;;;;;;;;;;1036751;28;20000;-78
2021/07/22 00:25:12;;;;;;;;;;;;;;;;;;1040725;28;20335;-80
2021/07/22 00:25:42;;;;;;;;;;;;;;;;;;1040902;28;19936;-80
2021/07/22 00:26:12;;;;;;;;;;;;;;;;;;1032579;28;20379;-79
2021/07/22 00:26:43;;;;;;;;;;;;;;;;;;1028894;28;20005;-78
2021/07/22 00:27:13;;;;;;;;;;;;;;;;;;1036720;28;19914;-79
2021/07/22 00:27:43;;;;;;;;;;;;;;;;;;1037325;28;19909;-79
2021/07/22 00:28:14;;;;;;;;;;;;;;;;;;1037456;28;20322;-78
2021/07/22 00:28:44;;;;;;;;;;;;;;;;;;1033466;28;20136;-78
2021/07/22 00:29:14;;;;;;;;;;;;;;;;;;1029179;28;19953;-79
2021/07/22 00:29:44;;;;;;;;;;;;;;;;;;1029374;28;19910;-79
2021/07/22 00:30:15;;;;;;;;;;;;;;;;;;1033589;28;19914;-81
2021/07/22 00:30:46;;;;;;;;;;;;;;;;;;1033511;28;20364;-79
2021/07/22 00:31:16;;;;;;;;;;;;;;;;;;1033307;28;19984;-78
2021/07/22 00:31:46;;;;;;;;;;;;;;;;;;1033532;28;20363;-80
2021/07/22 00:32:16;;;;;;;;;;;;;;;;;;1033580;28;19949;-79
2021/07/22 00:32:47;;;;;;;;;;;;;;;;;;1029462;28;19949;-80
2021/07/22 00:33:17;;;;;;;;;;;;;;;;;;1037467;28;20391;-79
2021/07/22 00:33:47;;;;;;;;;;;;;;;;;;1037496;28;19921;-80
2021/07/22 00:34:18;;;;;;;;;;;;;;;;;;1037779;28;19909;-79
2021/07/22 00:34:48;;;;;;;;;;;;;;;;;;1041742;28;19915;-79
2021/07/22 00:35:18;;;;;;;;;;;;;;;;;;1033636;28;20374;-79
2021/07/22 00:35:49;;;;;;;;;;;;;;;;;;1037726;28;19917;-79
2021/07/22 00:36:19;;;;;;;;;;;;;;;;;;1037758;28;19964;-79
2021/07/22 00:36:49;;;;;;;;;;;;;;;;;;1033452;28;19975;-79
2021/07/22 00:37:19;;;;;;;;;;;;;;;;;;1037451;28;19905;-80
2021/07/22 00:37:50;;;;;;;;;;;;;;;;;;1037425;28;19957;-80
2021/07/22 00:38:20;;;;;;;;;;;;;;;;;;1037714;28;20010;-80
2021/07/22 00:38:51;;;;;;;;;;;;;;;;;;1041819;28;19909;-80
2021/07/22 00:39:21;;;;;;;;;;;;;;;;;;1037624;28;19906;-78
2021/07/22 00:39:51;;;;;;;;;;;;;;;;;;1037728;28;19909;-80
2021/07/22 00:40:21;;;;;;;;;;;;;;;;;;1037689;28;20398;-80
2021/07/22 00:40:52;;;;;;;;;;;;;;;;;;1037633;28;19941;-81
2021/07/22 00:41:22;;;;;;;;;;;;;;;;;;1037738;28;19916;-81
2021/07/22 00:41:52;;;;;;;;;;;;;;;;;;1037737;28;19910;-80
2021/07/22 00:42:22;;;;;;;;;;;;;;;;;;1037964;28;20271;-78
2021/07/22 00:42:53;;;;;;;;;;;;;;;;;;1037468;28;20298;-78
2021/07/22 00:43:23;;;;;;;;;;;;;;;;;;1046185;28;19916;-81
2021/07/22 00:43:53;;;;;;;;;;;;;;;;;;1041951;28;19909;-79
2021/07/22 00:44:23;;;;;;;;;;;;;;;;;;1037711;28;19921;-81
2021/07/22 00:44:54;;;;;;;;;;;;;;;;;;1037724;28;19906;-80
2021/07/22 00:45:24;;;;;;;;;;;;;;;;;;1037675;28;19916;-79
2021/07/22 00:45:54;;;;;;;;;;;;;;;;;;1037540;28;20007;-79
2021/07/22 00:46:24;;;;;;;;;;;;;;;;;;1037565;28;19910;-79
2021/07/22 00:46:55;;;;;;;;;;;;;;;;;;1041500;28;19909;-79
2021/07/22 00:47:25;;;;;;;;;;;;;;;;;;1037372;28;20303;-78
2021/07/22 00:47:55;;;;;;;;;;;;;;;;;;1037257;28;19910;-80
2021/07/22 00:48:26;;;;;;;;;;;;;;;;;;1037382;28;19905;-80
2021/07/22 00:48:56;;;;;;;;;;;;;;;;;;1037220;28;19917;-78
2021/07/22 00:49:26;;;;;;;;;;;;;;;;;;1037530;28;19917;-80
2021/07/22 00:49:56;;;;;;;;;;;;;;;;;;1041455;28;19915;-80
2021/07/22 00:50:27;;;;;;;;;;;;;;;;;;1033227;28;20486;-79
2021/07/22 00:50:57;;;;;;;;;;;;;;;;;;1033437;28;19992;-80
2021/07/22 00:51:27;;;;;;;;;;;;;;;;;;1032961;28;20395;-80
2021/07/22 00:51:58;;;;;;;;;;;;;;;;;;1025264;28;19915;-78
2021/07/22 00:52:28;;;;;;;;;;;;;;;;;;1033052;28;20338;-79
2021/07/22 00:52:58;;;;;;;;;;;;;;;;;;1037586;28;19909;-78
2021/07/22 00:53:28;;;;;;;;;;;;;;;;;;1037353;28;19915;-79
2021/07/22 00:53:59;;;;;;;;;;;;;;;;;;1041455;28;19909;-79
2021/07/22 00:54:29;;;;;;;;;;;;;;;;;;1041371;28;19940;-78
2021/07/22 00:54:59;;;;;;;;;;;;;;;;;;1037431;28;19909;-79
2021/07/22 00:55:29;;;;;;;;;;;;;;;;;;1041468;28;19984;-78
2021/07/22 00:56:00;;;;;;;;;;;;;;;;;;1041303;28;19909;-79
2021/07/22 00:56:30;;;;;;;;;;;;;;;;;;1041533;28;19938;-79
2021/07/22 00:57:00;;;;;;;;;;;;;;;;;;1041565;28;20012;-78
2021/07/22 00:57:30;;;;;;;;;;;;;;;;;;1037838;28;19910;-78
2021/07/22 00:58:01;;;;;;;;;;;;;;;;;;1037783;28;19972;-78
2021/07/22 00:58:31;;;;;;;;;;;;;;;;;;1037560;28;19905;-78
2021/07/22 00:59:01;;;;;;;;;;;;;;;;;;1037529;28;19941;-78
2021/07/22 00:59:31;;;;;;;;;;;;;;;;;;1037639;28;19963;-78
2021/07/22 01:00:02;;;;;;;;;;;;;;;;;;1037492;28;19992;-77
2021/07/22 01:00:32;;;;;;;;;;;;;;;;;;1037711;28;20048;-78
2021/07/22 01:01:02;;;;;;;;;;;;;;;;;;1041414;28;20008;-78
2021/07/22 01:01:32;;;;;;;;;;;;;;;;;;1037492;28;19909;-78
2021/07/22 01:02:03;;;;;;;;;;;;;;;;;;1041287;28;19919;-78
2021/07/22 01:02:34;;;;;;;;;;;;;;;;;;1041376;28;20358;-78
2021/07/22 01:03:04;;;;;;;;;;;;;;;;;;1037642;28;19910;-79
2021/07/22 01:03:35;;;;;;;;;;;;;;;;;;1037546;28;19917;-78
2021/07/22 01:04:05;;;;;;;;;;;;;;;;;;1033407;28;19910;-79
2021/07/22 01:04:35;;;;;;;;;;;;;;;;;;1037417;28;19917;-78
2021/07/22 01:05:05;;;;;;;;;;;;;;;;;;1042099;28;20287;-78
2021/07/22 01:05:36;;;;;;;;;;;;;;;;;;1045615;28;19909;-78
2021/07/22 01:06:06;;;;;;;;;;;;;;;;;;1041399;28;19912;-78
2021/07/22 01:06:36;;;;;;;;;;;;;;;;;;1037456;28;19997;-78
2021/07/22 01:07:06;;;;;;;;;;;;;;;;;;1037890;28;19957;-78
2021/07/22 01:07:37;;;;;;;;;;;;;;;;;;1035531;28;19906;-78
2021/07/22 01:08:07;;;;;;;;;;;;;;;;;;1037821;28;19901;-79
2021/07/22 01:08:37;;;;;;;;;;;;;;;;;;1037689;28;20339;-79
2021/07/22 01:09:08;;;;;;;;;;;;;;;;;;1041636;28;19988;-78
2021/07/22 01:09:38;;;;;;;;;;;;;;;;;;1041590;28;19912;-78
2021/07/22 01:10:08;;;;;;;;;;;;;;;;;;1037725;28;20445;-80
2021/07/22 01:10:38;;;;;;;;;;;;;;;;;;1038019;28;19905;-77
2021/07/22 01:11:09;;;;;;;;;;;;;;;;;;1033438;28;19993;-78
2021/07/22 01:11:39;;;;;;;;;;;;;;;;;;1033473;28;20468;-79
2021/07/22 01:12:09;;;;;;;;;;;;;;;;;;1033301;28;19948;-80
2021/07/22 01:12:39;;;;;;;;;;;;;;;;;;1041779;28;19905;-78
2021/07/22 01:13:09;;;;;;;;;;;;;;;;;;1033474;28;19906;-78
2021/07/22 01:13:40;;;;;;;;;;;;;;;;;;1029227;28;20085;-78
2021/07/22 01:14:10;;;;;;;;;;;;;;;;;;1029426;28;20000;-79
2021/07/22 01:14:43;;;;;;;;;;;;;;;;;;1025398;29;19997;-80
2021/07/22 01:15:13;;;;;;;;;;;;;;;;;;1033430;28;19992;-81
2021/07/22 01:15:43;;;;;;;;;;;;;;;;;;1033311;28;19912;-81
2021/07/22 01:16:13;;;;;;;;;;;;;;;;;;1033751;28;20375;-79
2021/07/22 01:16:44;;;;;;;;;;;;;;;;;;1033186;28;19910;-80
2021/07/22 01:17:14;;;;;;;;;;;;;;;;;;1033112;28;20446;-79
2021/07/22 01:17:44;;;;;;;;;;;;;;;;;;1033239;28;19937;-79
2021/07/22 01:18:14;;;;;;;;;;;;;;;;;;1029332;28;19934;-81
2021/07/22 01:18:45;;;;;;;;;;;;;;;;;;1033346;28;19915;-79
2021/07/22 01:19:15;;;;;;;;;;;;;;;;;;1033046;28;19906;-80
2021/07/22 01:19:45;;;;;;;;;;;;;;;;;;1033612;28;19906;-79
2021/07/22 01:20:15;;;;;;;;;;;;;;;;;;1037708;28;20441;-80
2021/07/22 01:20:46;;;;;;;;;;;;;;;;;;1041694;28;19988;-80
2021/07/22 01:21:16;;;;;;;;;;;;;;;;;;1041704;28;19960;-79
2021/07/22 01:21:46;;;;;;;;;;;;;;;;;;1041765;28;19932;-79
2021/07/22 01:22:16;;;;;;;;;;;;;;;;;;1045703;28;19928;-79
2021/07/22 01:22:47;;;;;;;;;;;;;;;;;;1041504;28;19905;-79
2021/07/22 01:23:17;;;;;;;;;;;;;;;;;;1041526;28;19964;-79
2021/07/22 01:23:47;;;;;;;;;;;;;;;;;;1045730;28;19995;-79
2021/07/22 01:24:17;;;;;;;;;;;;;;;;;;1041650;28;19955;-79
2021/07/22 01:24:48;;;;;;;;;;;;;;;;;;1042013;28;19909;-78
2021/07/22 01:25:21;;;;;;;;;;;;;;;;;;1037380;28;20344;-80
2021/07/22 01:25:51;;;;;;;;;;;;;;;;;;1037513;28;19905;-78
2021/07/22 01:26:21;;;;;;;;;;;;;;;;;;1037759;28;19910;-79
2021/07/22 01:26:52;;;;;;;;;;;;;;;;;;1037649;28;19961;-79
2021/07/22 01:27:22;;;;;;;;;;;;;;;;;;1037609;28;20379;-79
2021/07/22 01:27:52;;;;;;;;;;;;;;;;;;1033549;28;19996;-79
2021/07/22 01:28:22;;;;;;;;;;;;;;;;;;1029494;28;19941;-80
2021/07/22 01:28:53;;;;;;;;;;;;;;;;;;1029513;28;19943;-80
2021/07/22 01:29:23;;;;;;;;;;;;;;;;;;1029470;28;20359;-81
2021/07/22 01:29:53;;;;;;;;;;;;;;;;;;1033614;28;19929;-80
2021/07/22 01:30:24;;;;;;;;;;;;;;;;;;1029966;28;19914;-81
2021/07/22 01:30:54;;;;;;;;;;;;;;;;;;1033572;28;20340;-80
2021/07/22 01:31:27;;;;;;;;;;;;;;;;;;1033839;28;19913;-80
2021/07/22 01:31:57;;;;;;;;;;;;;;;;;;1033775;28;19996;-81
2021/07/22 01:32:28;;;;;;;;;;;;;;;;;;1030138;28;19913;-80
2021/07/22 01:32:58;;;;;;;;;;;;;;;;;;1030041;28;20001;-80
2021/07/22 01:33:28;;;;;;;;;;;;;;;;;;1037646;28;19913;-79
2021/07/22 01:33:58;;;;;;;;;;;;;;;;;;1029378;28;20378;-78
2021/07/22 01:34:29;;;;;;;;;;;;;;;;;;1033745;28;19929;-80
2021/07/22 01:34:59;;;;;;;;;;;;;;;;;;1033546;28;19956;-78
2021/07/22 01:35:29;;;;;;;;;;;;;;;;;;1033953;28;19937;-81
2021/07/22 01:36:00;;;;;;;;;;;;;;;;;;1041569;28;19909;-79
2021/07/22 01:36:30;;;;;;;;;;;;;;;;;;1033425;28;20315;-79
2021/07/22 01:37:00;;;;;;;;;;;;;;;;;;1029190;28;19964;-78
2021/07/22 01:37:31;;;;;;;;;;;;;;;;;;1029276;28;19906;-81
2021/07/22 01:38:01;;;;;;;;;;;;;;;;;;1020954;29;19911;-79
2021/07/22 01:38:31;;;;;;;;;;;;;;;;;;1025195;28;19907;-79
2021/07/22 01:39:02;;;;;;;;;;;;;;;;;;1033262;28;19906;-78
2021/07/22 01:39:33;;;;;;;;;;;;;;;;;;1033328;28;19914;-78
2021/07/22 01:40:03;;;;;;;;;;;;;;;;;;1037515;28;19972;-79
2021/07/22 01:40:33;;;;;;;;;;;;;;;;;;1036989;28;20379;-78
2021/07/22 01:41:04;;;;;;;;;;;;;;;;;;1033472;28;20298;-79
2021/07/22 01:41:37;;;;;;;;;;;;;;;;;;1033331;28;19969;-79
2021/07/22 01:42:07;;;;;;;;;;;;;;;;;;1033889;28;20427;-79
2021/07/22 01:42:38;;;;;;;;;;;;;;;;;;1041673;28;19980;-79
2021/07/22 01:43:08;;;;;;;;;;;;;;;;;;1041891;28;19969;-78
2021/07/22 01:43:38;;;;;;;;;;;;;;;;;;1033299;28;20294;-79
2021/07/22 01:44:09;;;;;;;;;;;;;;;;;;1029318;28;19984;-78
2021/07/22 01:44:39;;;;;;;;;;;;;;;;;;1025360;28;20061;-79
2021/07/22 01:45:09;;;;;;;;;;;;;;;;;;1029555;28;19918;-79
2021/07/22 01:45:39;;;;;;;;;;;;;;;;;;1041349;28;19981;-78
2021/07/22 01:46:10;;;;;;;;;;;;;;;;;;1037253;28;19948;-79
2021/07/22 01:46:40;;;;;;;;;;;;;;;;;;1037368;28;19910;-79
2021/07/22 01:47:10;;;;;;;;;;;;;;;;;;1033433;28;19921;-79
2021/07/22 01:47:43;;;;;;;;;;;;;;;;;;1033165;28;20360;-78
2021/07/22 01:48:14;;;;;;;;;;;;;;;;;;1037220;28;19909;-79
2021/07/22 01:48:44;;;;;;;;;;;;;;;;;;1033438;28;19943;-79
2021/07/22 01:49:14;;;;;;;;;;;;;;;;;;1036601;28;20051;-78
2021/07/22 01:49:44;;;;;;;;;;;;;;;;;;1037344;28;19910;-78
2021/07/22 01:50:15;;;;;;;;;;;;;;;;;;1037176;28;19915;-79
2021/07/22 01:50:45;;;;;;;;;;;;;;;;;;1041592;28;19909;-78
2021/07/22 01:51:15;;;;;;;;;;;;;;;;;;1041686;28;20012;-78
2021/07/22 01:51:45;;;;;;;;;;;;;;;;;;1041646;28;20043;-78
2021/07/22 01:52:16;;;;;;;;;;;;;;;;;;1041588;28;19906;-79
2021/07/22 01:52:46;;;;;;;;;;;;;;;;;;1041533;28;19909;-78
2021/07/22 01:53:16;;;;;;;;;;;;;;;;;;1041725;28;19939;-79
2021/07/22 01:53:46;;;;;;;;;;;;;;;;;;1037867;28;20003;-79
2021/07/22 01:54:17;;;;;;;;;;;;;;;;;;1041751;28;19909;-79
2021/07/22 01:54:47;;;;;;;;;;;;;;;;;;1041443;28;19909;-78
2021/07/22 01:55:17;;;;;;;;;;;;;;;;;;1045802;28;19905;-79
2021/07/22 01:55:47;;;;;;;;;;;;;;;;;;1045917;28;19909;-80
2021/07/22 01:56:18;;;;;;;;;;;;;;;;;;1041715;28;19910;-79
2021/07/22 01:56:48;;;;;;;;;;;;;;;;;;1041659;28;20449;-78
2021/07/22 01:57:18;;;;;;;;;;;;;;;;;;1033362;28;19906;-79
2021/07/22 01:57:48;;;;;;;;;;;;;;;;;;1037472;28;20417;-79
2021/07/22 01:58:19;;;;;;;;;;;;;;;;;;1033737;28;20322;-78
2021/07/22 01:58:49;;;;;;;;;;;;;;;;;;1028925;28;19997;-79
2021/07/22 01:59:19;;;;;;;;;;;;;;;;;;1033162;28;19909;-80
2021/07/22 01:59:49;;;;;;;;;;;;;;;;;;1025259;28;19965;-79
2021/07/22 02:00:20;;;;;;;;;;;;;;;;;;1033503;28;19906;-80
2021/07/22 02:00:50;;;;;;;;;;;;;;;;;;1037987;28;20420;-80
2021/07/22 02:01:20;;;;;;;;;;;;;;;;;;1037484;28;19948;-79
2021/07/22 02:01:50;;;;;;;;;;;;;;;;;;1037758;28;19949;-79
2021/07/22 02:02:21;;;;;;;;;;;;;;;;;;1033220;28;19914;-79
2021/07/22 02:02:51;;;;;;;;;;;;;;;;;;1041283;28;19913;-79
2021/07/22 02:03:21;;;;;;;;;;;;;;;;;;1041458;28;19931;-78
2021/07/22 02:03:51;;;;;;;;;;;;;;;;;;1041273;28;19932;-78
2021/07/22 02:04:22;;;;;;;;;;;;;;;;;;1041190;28;19909;-78
2021/07/22 02:04:52;;;;;;;;;;;;;;;;;;1033140;28;19910;-79
2021/07/22 02:05:22;;;;;;;;;;;;;;;;;;1041038;28;19924;-78
2021/07/22 02:05:52;;;;;;;;;;;;;;;;;;1041322;28;20004;-78
2021/07/22 02:06:23;;;;;;;;;;;;;;;;;;1041245;28;20358;-78
2021/07/22 02:06:53;;;;;;;;;;;;;;;;;;1033413;28;19913;-78
2021/07/22 02:07:23;;;;;;;;;;;;;;;;;;1029582;28;19914;-79
2021/07/22 02:07:53;;;;;;;;;;;;;;;;;;1029420;28;19929;-79
2021/07/22 02:08:24;;;;;;;;;;;;;;;;;;1029163;28;19922;-80
2021/07/22 02:08:54;;;;;;;;;;;;;;;;;;1032968;28;19906;-79
2021/07/22 02:09:24;;;;;;;;;;;;;;;;;;1033127;28;20264;-80
2021/07/22 02:09:54;;;;;;;;;;;;;;;;;;1037235;28;19992;-79
2021/07/22 02:10:25;;;;;;;;;;;;;;;;;;1037383;28;19905;-79
2021/07/22 02:10:55;;;;;;;;;;;;;;;;;;1037435;28;19902;-78
2021/07/22 02:11:25;;;;;;;;;;;;;;;;;;1033477;28;19906;-78
2021/07/22 02:11:55;;;;;;;;;;;;;;;;;;1025276;29;19907;-79
2021/07/22 02:12:26;;;;;;;;;;;;;;;;;;1029300;28;19910;-78
2021/07/22 02:12:56;;;;;;;;;;;;;;;;;;1025118;29;20431;-78
2021/07/22 02:13:26;;;;;;;;;;;;;;;;;;1025339;29;19953;-79
2021/07/22 02:13:56;;;;;;;;;;;;;;;;;;1033669;28;19953;-80
2021/07/22 02:14:26;;;;;;;;;;;;;;;;;;1041166;28;19988;-78
2021/07/22 02:14:57;;;;;;;;;;;;;;;;;;1041125;28;19905;-78
2021/07/22 02:15:27;;;;;;;;;;;;;;;;;;1034017;28;19906;-80
2021/07/22 02:15:57;;;;;;;;;;;;;;;;;;1030487;28;20069;-78
2021/07/22 02:16:27;;;;;;;;;;;;;;;;;;1026410;29;19906;-77
2021/07/22 02:16:58;;;;;;;;;;;;;;;;;;1026446;29;20476;-79
2021/07/22 02:17:28;;;;;;;;;;;;;;;;;;1034339;28;19933;-77
2021/07/22 02:17:58;;;;;;;;;;;;;;;;;;1042516;28;19913;-79
2021/07/22 02:18:28;;;;;;;;;;;;;;;;;;1034325;28;20287;-79
2021/07/22 02:18:59;;;;;;;;;;;;;;;;;;1034299;28;19909;-79
2021/07/22 02:19:29;;;;;;;;;;;;;;;;;;1030557;28;19907;-79
2021/07/22 02:19:59;;;;;;;;;;;;;;;;;;1025221;28;19941;-79
2021/07/22 02:20:29;;;;;;;;;;;;;;;;;;1033136;28;19906;-79
2021/07/22 02:21:00;;;;;;;;;;;;;;;;;;1033147;28;19902;-79
2021/07/22 02:21:30;;;;;;;;;;;;;;;;;;1040933;28;19913;-79
2021/07/22 02:22:00;;;;;;;;;;;;;;;;;;1041146;28;20391;-79
2021/07/22 02:22:30;;;;;;;;;;;;;;;;;;1032691;28;20306;-79
2021/07/22 02:23:01;;;;;;;;;;;;;;;;;;1032955;28;20001;-79
2021/07/22 02:23:31;;;;;;;;;;;;;;;;;;1032748;28;19913;-79
2021/07/22 02:24:01;;;;;;;;;;;;;;;;;;1036882;28;19905;-79
2021/07/22 02:24:31;;;;;;;;;;;;;;;;;;1041047;28;19960;-79
2021/07/22 02:25:02;;;;;;;;;;;;;;;;;;1045196;28;20371;-79
2021/07/22 02:25:32;;;;;;;;;;;;;;;;;;1041074;28;19905;-79
2021/07/22 02:26:02;;;;;;;;;;;;;;;;;;1037013;28;20021;-79
2021/07/22 02:26:33;;;;;;;;;;;;;;;;;;1037423;28;19910;-79
2021/07/22 02:27:03;;;;;;;;;;;;;;;;;;1041060;28;20044;-79
2021/07/22 02:27:35;;;;;;;;;;;;;;;;;;1041217;28;19975;-79
2021/07/22 02:28:05;;;;;;;;;;;;;;;;;;1040844;28;19925;-79
2021/07/22 02:28:36;;;;;;;;;;;;;;;;;;1041002;28;20359;-79
2021/07/22 02:29:06;;;;;;;;;;;;;;;;;;1037046;28;19910;-79
2021/07/22 02:29:36;;;;;;;;;;;;;;;;;;1037293;28;20047;-80
2021/07/22 02:30:06;;;;;;;;;;;;;;;;;;1040812;28;19905;-79
2021/07/22 02:30:37;;;;;;;;;;;;;;;;;;1045272;28;19975;-79
2021/07/22 02:31:07;;;;;;;;;;;;;;;;;;1041142;28;20395;-79
2021/07/22 02:31:37;;;;;;;;;;;;;;;;;;1037079;28;19975;-79
2021/07/22 02:32:07;;;;;;;;;;;;;;;;;;1033067;28;19964;-80
2021/07/22 02:32:38;;;;;;;;;;;;;;;;;;1037063;28;19910;-79
2021/07/22 02:33:08;;;;;;;;;;;;;;;;;;1041282;28;19920;-79
2021/07/22 02:33:38;;;;;;;;;;;;;;;;;;1041240;28;19958;-79
2021/07/22 02:34:09;;;;;;;;;;;;;;;;;;1041072;28;19918;-80
2021/07/22 02:34:39;;;;;;;;;;;;;;;;;;1033089;28;19984;-79
2021/07/22 02:35:09;;;;;;;;;;;;;;;;;;1037350;28;19910;-79
2021/07/22 02:35:39;;;;;;;;;;;;;;;;;;1032887;28;20262;-79
2021/07/22 02:36:10;;;;;;;;;;;;;;;;;;1033128;28;19982;-79
2021/07/22 02:36:40;;;;;;;;;;;;;;;;;;1033248;28;20402;-79
2021/07/22 02:37:10;;;;;;;;;;;;;;;;;;1033528;28;19950;-79
2021/07/22 02:37:41;;;;;;;;;;;;;;;;;;1041409;28;20369;-79
2021/07/22 02:38:11;;;;;;;;;;;;;;;;;;1037703;28;19988;-79
2021/07/22 02:38:41;;;;;;;;;;;;;;;;;;1041661;28;19916;-79
2021/07/22 02:39:11;;;;;;;;;;;;;;;;;;1037223;28;20367;-79
2021/07/22 02:39:41;;;;;;;;;;;;;;;;;;1033568;28;19910;-79
2021/07/22 02:40:12;;;;;;;;;;;;;;;;;;1037636;28;19983;-79
2021/07/22 02:40:42;;;;;;;;;;;;;;;;;;1033642;28;19914;-79
2021/07/22 02:41:12;;;;;;;;;;;;;;;;;;1037199;28;20474;-78
2021/07/22 02:41:42;;;;;;;;;;;;;;;;;;1037320;28;20071;-79
2021/07/22 02:42:13;;;;;;;;;;;;;;;;;;1037334;28;19942;-77
2021/07/22 02:42:43;;;;;;;;;;;;;;;;;;1040528;28;19945;-77
2021/07/22 02:43:13;;;;;;;;;;;;;;;;;;1037235;28;19906;-78
2021/07/22 02:43:43;;;;;;;;;;;;;;;;;;1037052;28;19960;-79
2021/07/22 02:44:14;;;;;;;;;;;;;;;;;;1037221;28;19917;-79
2021/07/22 02:44:44;;;;;;;;;;;;;;;;;;1029008;28;19941;-79
2021/07/22 02:45:14;;;;;;;;;;;;;;;;;;1028870;28;20375;-79
2021/07/22 02:45:44;;;;;;;;;;;;;;;;;;1032868;28;19961;-77
2021/07/22 02:46:15;;;;;;;;;;;;;;;;;;1033184;28;19921;-79
2021/07/22 02:46:45;;;;;;;;;;;;;;;;;;1041039;28;19955;-78
2021/07/22 02:47:15;;;;;;;;;;;;;;;;;;1040961;28;19909;-78
2021/07/22 02:47:45;;;;;;;;;;;;;;;;;;1037319;28;19917;-79
2021/07/22 02:48:16;;;;;;;;;;;;;;;;;;1041120;28;19916;-78
2021/07/22 02:48:46;;;;;;;;;;;;;;;;;;1041159;28;19909;-78
2021/07/22 02:49:16;;;;;;;;;;;;;;;;;;1032612;28;19949;-78
2021/07/22 02:49:46;;;;;;;;;;;;;;;;;;1028878;28;19960;-78
2021/07/22 02:50:17;;;;;;;;;;;;;;;;;;1024300;29;19910;-78
2021/07/22 02:50:47;;;;;;;;;;;;;;;;;;1024807;28;19964;-78
2021/07/22 02:51:17;;;;;;;;;;;;;;;;;;1036972;28;19992;-78
2021/07/22 02:51:47;;;;;;;;;;;;;;;;;;1036808;28;20327;-78
2021/07/22 02:52:18;;;;;;;;;;;;;;;;;;1028651;28;19910;-78
2021/07/22 02:52:48;;;;;;;;;;;;;;;;;;1028835;28;19906;-78
2021/07/22 02:53:18;;;;;;;;;;;;;;;;;;1028822;28;20507;-78
2021/07/22 02:53:48;;;;;;;;;;;;;;;;;;1028796;28;19941;-78
2021/07/22 02:54:19;;;;;;;;;;;;;;;;;;1036921;28;19933;-78
2021/07/22 02:54:49;;;;;;;;;;;;;;;;;;1032788;28;20411;-78
2021/07/22 02:55:19;;;;;;;;;;;;;;;;;;1028772;28;20275;-78
2021/07/22 02:55:49;;;;;;;;;;;;;;;;;;1036965;28;19910;-78
2021/07/22 02:56:20;;;;;;;;;;;;;;;;;;1036850;28;20009;-78
2021/07/22 02:56:50;;;;;;;;;;;;;;;;;;1040861;28;19955;-78
2021/07/22 02:57:20;;;;;;;;;;;;;;;;;;1041013;28;19909;-78
2021/07/22 02:57:50;;;;;;;;;;;;;;;;;;1036940;28;19966;-78
2021/07/22 02:58:21;;;;;;;;;;;;;;;;;;1037186;28;19952;-79
2021/07/22 02:58:51;;;;;;;;;;;;;;;;;;1040954;28;19909;-78
2021/07/22 02:59:21;;;;;;;;;;;;;;;;;;1045001;28;19932;-78
2021/07/22 02:59:51;;;;;;;;;;;;;;;;;;1045136;28;19909;-78
2021/07/22 03:00:22;;;;;;;;;;;;;;;;;;1040891;28;19935;-78
2021/07/22 03:00:52;;;;;;;;;;;;;;;;;;1036815;28;19913;-78
2021/07/22 03:01:22;;;;;;;;;;;;;;;;;;1036760;28;19937;-78
2021/07/22 03:01:52;;;;;;;;;;;;;;;;;;1039412;28;19916;-78
2021/07/22 03:02:23;;;;;;;;;;;;;;;;;;1036598;28;19983;-78
2021/07/22 03:02:53;;;;;;;;;;;;;;;;;;1040877;28;19909;-78
2021/07/22 03:03:23;;;;;;;;;;;;;;;;;;1032629;28;20366;-78
2021/07/22 03:03:53;;;;;;;;;;;;;;;;;;1032742;28;19910;-79
2021/07/22 03:04:24;;;;;;;;;;;;;;;;;;1028862;28;20053;-78
2021/07/22 03:04:54;;;;;;;;;;;;;;;;;;1028665;28;20005;-78
2021/07/22 03:05:24;;;;;;;;;;;;;;;;;;1032737;28;19916;-78
2021/07/22 03:05:55;;;;;;;;;;;;;;;;;;1036355;28;19910;-78
2021/07/22 03:06:26;;;;;;;;;;;;;;;;;;1036889;28;19945;-78
2021/07/22 03:06:56;;;;;;;;;;;;;;;;;;1036982;28;20360;-78
2021/07/22 03:07:26;;;;;;;;;;;;;;;;;;1040847;28;20003;-78
2021/07/22 03:07:57;;;;;;;;;;;;;;;;;;1040944;28;19996;-78
2021/07/22 03:08:27;;;;;;;;;;;;;;;;;;1040932;28;19944;-78
2021/07/22 03:08:57;;;;;;;;;;;;;;;;;;1043295;28;20047;-77
2021/07/22 03:09:27;;;;;;;;;;;;;;;;;;1045162;28;19929;-78
2021/07/22 03:09:58;;;;;;;;;;;;;;;;;;1040588;28;19939;-78
2021/07/22 03:10:28;;;;;;;;;;;;;;;;;;1040815;28;19952;-77
2021/07/22 03:10:59;;;;;;;;;;;;;;;;;;1040796;28;19917;-78
2021/07/22 03:11:29;;;;;;;;;;;;;;;;;;1033017;28;19906;-78
2021/07/22 03:11:59;;;;;;;;;;;;;;;;;;1032653;28;19910;-78
2021/07/22 03:12:29;;;;;;;;;;;;;;;;;;1032798;28;19933;-78
2021/07/22 03:13:00;;;;;;;;;;;;;;;;;;1032824;28;19910;-78
2021/07/22 03:13:30;;;;;;;;;;;;;;;;;;1036814;28;20000;-78
2021/07/22 03:14:01;;;;;;;;;;;;;;;;;;1032259;28;20351;-78
2021/07/22 03:14:31;;;;;;;;;;;;;;;;;;1028733;28;19910;-78
2021/07/22 03:15:02;;;;;;;;;;;;;;;;;;1028639;28;19910;-78
2021/07/22 03:15:32;;;;;;;;;;;;;;;;;;1029262;28;19910;-79
2021/07/22 03:16:02;;;;;;;;;;;;;;;;;;1036696;28;20441;-78
2021/07/22 03:16:33;;;;;;;;;;;;;;;;;;1036782;28;19910;-78
2021/07/22 03:17:03;;;;;;;;;;;;;;;;;;1037748;28;19910;-78
2021/07/22 03:17:33;;;;;;;;;;;;;;;;;;1036740;28;19913;-78
2021/07/22 03:18:03;;;;;;;;;;;;;;;;;;1036646;28;20367;-78
2021/07/22 03:18:34;;;;;;;;;;;;;;;;;;1028793;28;19968;-78
2021/07/22 03:19:04;;;;;;;;;;;;;;;;;;1028378;28;19917;-77
2021/07/22 03:19:34;;;;;;;;;;;;;;;;;;1032714;28;20382;-78
2021/07/22 03:20:04;;;;;;;;;;;;;;;;;;1032628;28;19988;-78
2021/07/22 03:20:35;;;;;;;;;;;;;;;;;;1040655;28;19995;-78
2021/07/22 03:21:05;;;;;;;;;;;;;;;;;;1040884;28;19909;-78
2021/07/22 03:21:35;;;;;;;;;;;;;;;;;;1040882;28;20345;-78
2021/07/22 03:22:06;;;;;;;;;;;;;;;;;;1036610;28;19948;-78
2021/07/22 03:22:36;;;;;;;;;;;;;;;;;;1032676;28;20374;-78
2021/07/22 03:23:06;;;;;;;;;;;;;;;;;;1032731;28;19933;-78
2021/07/22 03:23:36;;;;;;;;;;;;;;;;;;1032615;28;19917;-78
2021/07/22 03:24:07;;;;;;;;;;;;;;;;;;1032409;28;19996;-78
2021/07/22 03:24:37;;;;;;;;;;;;;;;;;;1036594;28;20012;-78
2021/07/22 03:25:07;;;;;;;;;;;;;;;;;;1036846;28;20000;-78
2021/07/22 03:25:37;;;;;;;;;;;;;;;;;;1036460;28;20322;-78
2021/07/22 03:26:08;;;;;;;;;;;;;;;;;;1036525;28;19914;-78
2021/07/22 03:26:38;;;;;;;;;;;;;;;;;;1032482;28;20067;-78
2021/07/22 03:27:08;;;;;;;;;;;;;;;;;;1028866;28;19992;-78